| time (UTC) | temp F | wind direction | speed knots | gust knots | rain 1hr in | rain 24hr in | rain mn in | humidity % | barometer mb |
| 20260502182954 | 68 | 280 | 4.3 | 12.2 | 0.00 | 0.00 | 0.00 | 30 | 1016.2 |
| 20260502182448 | 67 | 314 | 3.5 | 14.8 | 0.00 | 0.00 | 0.00 | 31 | 1016.3 |
| 20260502181430 | 68 | 278 | 2.6 | 13.9 | 0.00 | 0.00 | 0.00 | 29 | 1016.4 |
| 20260502180923 | 67 | 302 | 3.5 | 14.8 | 0.00 | 0.00 | 0.00 | 29 | 1016.4 |
| 20260502180415 | 67 | 283 | 4.3 | 14.8 | 0.00 | 0.00 | 0.00 | 27 | 1016.5 |
| 20260502170245 | 67 | 227 | 2.6 | 7.0 | 0.00 | 0.00 | 0.00 | 32 | 1016.9 |
| 20260502163712 | 65 | 251 | 5.2 | 13.9 | 0.00 | 0.00 | 0.00 | 33 | 1017.1 |
| 20260502163200 | 65 | 308 | 5.2 | 13.9 | 0.00 | 0.00 | 0.00 | 33 | 1017.2 |
| 20260502162655 | 65 | 6 | 3.5 | 13.0 | 0.00 | 0.00 | 0.00 | 34 | 1017.3 |
| 20260502162149 | 66 | 318 | 0.9 | 9.6 | 0.00 | 0.00 | 0.00 | 32 | 1017.4 |
| 20260502161639 | 66 | 115 | 1.7 | 7.8 | 0.00 | 0.00 | 0.00 | 34 | 1017.4 |
| 20260502160639 | 66 | 343 | 0.9 | 10.4 | 0.00 | 0.00 | 0.00 | 35 | 1017.5 |
| 20260502152131 | 64 | 40 | 0.0 | 2.6 | 0.00 | 0.00 | 0.00 | 38 | 1017.5 |
| 20260502151631 | 63 | 276 | 0.0 | 2.6 | 0.00 | 0.00 | 0.00 | 38 | 1017.5 |
| 20260502151134 | 64 | 293 | 0.0 | 0.9 | 0.00 | 0.00 | 0.00 | 39 | 1017.5 |
| 20260502150631 | 63 | 18 | 0.0 | 3.5 | 0.00 | 0.00 | 0.00 | 39 | 1017.4 |
| 20260502150131 | 63 | 56 | 0.9 | 6.1 | 0.00 | 0.00 | 0.00 | 42 | 1017.4 |
| 20260502140123 | 60 | 53 | 0.0 | 0.9 | 0.00 | 0.00 | 0.00 | 45 | 1017.1 |
| 20260502130121 | 55 | 266 | 0.0 | 5.2 | 0.00 | 0.00 | 0.00 | 60 | 1016.9 |
| 20260502123611 | 51 | 25 | 0.0 | 0.0 | 0.00 | 0.00 | 0.00 | 65 | 1017.0 |
| 20260502123112 | 51 | 22 | 0.0 | 0.0 | 0.00 | 0.00 | 0.00 | 66 | 1016.9 |
| 20260502122609 | 50 | 356 | 0.0 | 3.5 | 0.00 | 0.00 | 0.00 | 66 | 1016.8 |
| 20260502122102 | 50 | 352 | 0.0 | 3.5 | 0.00 | 0.00 | 0.00 | 66 | 1016.7 |
| 20260502121605 | 50 | 333 | 0.9 | 7.0 | 0.00 | 0.00 | 0.00 | 66 | 1016.8 |
| 20260502121102 | 50 | 21 | 0.0 | 7.0 | 0.00 | 0.00 | 0.00 | 66 | 1016.8 |
| 20260502120601 | 49 | 328 | 0.0 | 0.0 | 0.00 | 0.00 | 0.00 | 66 | 1016.8 |
| 20260502115558 | 49 | 31 | 0.0 | 1.7 | 0.00 | 0.00 | 0.00 | 67 | 1016.6 |
| 20260502114556 | 49 | 356 | 0.0 | 0.0 | 0.00 | 0.00 | 0.00 | 68 | 1016.5 |
| 20260502114054 | 0 | 0.0 | 0.0 | 0.00 | 0.00 | 0.00 | 1016.4 | ||
| 20260502113548 | 0 | 0.0 | 0.0 | 0.00 | 0.00 | 0.00 | 1016.4 | ||
| 20260502113050 | 0 | 0.0 | 0.0 | 0.00 | 0.00 | 0.00 | 1016.3 | ||
| 20260502112544 | 0 | 0.0 | 0.0 | 0.00 | 0.00 | 0.00 | 1016.1 | ||
| 20260502111958 | 0 | 0.0 | 0.0 | 0.00 | 0.00 | 0.00 | 1016.1 | ||
| 20260502111452 | 0 | 0.0 | 0.0 | 0.00 | 0.00 | 0.00 | 1016.0 | ||
| 20260502110928 | 0 | 0.0 | 0.0 | 0.00 | 0.00 | 0.00 | 1015.9 | ||
| 20260502110346 | 0 | 0.0 | 0.0 | 0.00 | 0.00 | 0.00 | 1015.9 | ||
| 20260502105751 | 0 | 0.0 | 0.0 | 0.00 | 0.00 | 0.00 | 1015.9 | ||
| 20260502105251 | 0 | 0.0 | 0.0 | 0.00 | 0.00 | 0.00 | 1015.9 | ||
| 20260502104154 | 0 | 0.0 | 0.0 | 0.00 | 0.00 | 0.00 | 1015.9 | ||
| 20260502103649 | 49 | 5 | 0.0 | 0.0 | 0.00 | 0.00 | 0.00 | 66 | 1015.9 |
| 20260502102121 | 49 | 5 | 0.0 | 0.0 | 0.00 | 0.00 | 0.00 | 66 | 1015.7 |
| 20260502101103 | 49 | 292 | 0.0 | 0.0 | 0.00 | 0.00 | 0.00 | 65 | 1015.6 |
| 20260502100558 | 49 | 25 | 0.0 | 0.0 | 0.00 | 0.00 | 0.00 | 65 | 1015.6 |
| 20260502091050 | 49 | 359 | 0.0 | 0.0 | 0.00 | 0.00 | 0.00 | 66 | 1015.8 |
| 20260502090539 | 49 | 359 | 0.0 | 0.0 | 0.00 | 0.00 | 0.00 | 66 | 1015.7 |
| 20260502071420 | 53 | 352 | 0.0 | 0.0 | 0.00 | 0.00 | 0.00 | 56 | 1015.4 |
| 20260502070924 | 53 | 352 | 0.0 | 0.0 | 0.00 | 0.00 | 0.00 | 56 | 1015.7 |
| 20260502070419 | 54 | 352 | 0.0 | 0.0 | 0.00 | 0.00 | 0.00 | 55 | 1015.8 |
| 20260502064917 | 54 | 352 | 0.0 | 0.0 | 0.00 | 0.00 | 0.00 | 53 | 1016.0 |
| 20260502064418 | 55 | 352 | 0.0 | 0.0 | 0.00 | 0.00 | 0.00 | 53 | 1016.0 |
| 20260502063914 | 55 | 352 | 0.0 | 0.0 | 0.00 | 0.00 | 0.00 | 53 | 1016.2 |
| 20260502062919 | 55 | 352 | 0.0 | 0.0 | 0.00 | 0.00 | 0.00 | 52 | 1016.3 |
| 20260502062419 | 55 | 0 | 0.0 | 0.9 | 0.00 | 0.00 | 0.00 | 51 | 1016.3 |
| 20260502061921 | 55 | 77 | 0.0 | 0.9 | 0.00 | 0.00 | 0.00 | 51 | 1016.3 |
| 20260502061414 | 55 | 92 | 0.0 | 0.0 | 0.00 | 0.00 | 0.00 | 50 | 1016.3 |
| 20260502060913 | 55 | 311 | 0.0 | 0.0 | 0.00 | 0.00 | 0.00 | 50 | 1016.4 |
| 20260502060417 | 55 | 46 | 0.0 | 2.6 | 0.00 | 0.00 | 0.00 | 50 | 1016.3 |
| 20260502055916 | 56 | 286 | 0.0 | 2.6 | 0.00 | 0.00 | 0.00 | 50 | 1016.4 |
| 20260502055414 | 56 | 199 | 0.0 | 3.5 | 0.00 | 0.00 | 0.00 | 49 | 1016.2 |
| 20260502054916 | 56 | 319 | 0.0 | 3.5 | 0.00 | 0.00 | 0.00 | 49 | 1016.3 |
| 20260502054413 | 56 | 53 | 0.0 | 0.9 | 0.00 | 0.00 | 0.00 | 48 | 1016.4 |
| 20260502053913 | 56 | 47 | 0.0 | 7.0 | 0.00 | 0.00 | 0.00 | 48 | 1016.3 |
| 20260502053412 | 56 | 30 | 0.0 | 7.0 | 0.00 | 0.00 | 0.00 | 48 | 1016.3 |
| 20260502052915 | 56 | 60 | 0.0 | 6.1 | 0.00 | 0.00 | 0.00 | 48 | 1016.2 |
| 20260502052414 | 56 | 34 | 0.0 | 3.5 | 0.00 | 0.00 | 0.00 | 48 | 1016.1 |
| 20260502051913 | 56 | 3 | 0.0 | 3.5 | 0.00 | 0.00 | 0.00 | 48 | 1016.0 |
| 20260502051409 | 56 | 89 | 1.7 | 7.0 | 0.00 | 0.00 | 0.00 | 48 | 1015.9 |
| 20260502050909 | 56 | 34 | 1.7 | 7.0 | 0.00 | 0.00 | 0.00 | 47 | 1015.8 |
| 20260502050409 | 56 | 22 | 0.9 | 7.0 | 0.00 | 0.00 | 0.00 | 47 | 1015.7 |
| 20260502045409 | 57 | 12 | 0.0 | 2.6 | 0.00 | 0.00 | 0.00 | 46 | 1015.6 |
| 20260502044908 | 57 | 46 | 0.9 | 9.6 | 0.00 | 0.00 | 0.00 | 47 | 1015.6 |
| 20260502044411 | 57 | 357 | 0.9 | 9.6 | 0.00 | 0.00 | 0.00 | 46 | 1015.6 |
| 20260502043912 | 57 | 34 | 0.0 | 3.5 | 0.00 | 0.00 | 0.00 | 46 | 1015.5 |
| 20260502043408 | 57 | 50 | 0.0 | 7.0 | 0.00 | 0.00 | 0.00 | 46 | 1015.5 |
| 20260502042909 | 57 | 17 | 0.0 | 7.0 | 0.00 | 0.00 | 0.00 | 46 | 1015.4 |
| 20260502042412 | 57 | 49 | 0.0 | 1.7 | 0.00 | 0.00 | 0.00 | 45 | 1015.3 |
| 20260502041910 | 57 | 335 | 0.0 | 0.9 | 0.00 | 0.00 | 0.00 | 45 | 1015.4 |
| 20260502041413 | 57 | 330 | 0.0 | 8.7 | 0.00 | 0.00 | 0.00 | 46 | 1015.4 |
| 20260502040909 | 57 | 17 | 0.0 | 8.7 | 0.00 | 0.00 | 0.00 | 46 | 1015.3 |
| 20260502040413 | 57 | 39 | 0.0 | 0.0 | 0.00 | 0.00 | 0.00 | 47 | 1015.2 |
| 20260502035905 | 57 | 50 | 0.0 | 2.6 | 0.00 | 0.00 | 0.00 | 47 | 1015.2 |
| 20260502035408 | 57 | 41 | 0.9 | 9.6 | 0.00 | 0.00 | 0.00 | 47 | 1015.4 |
| 20260502034904 | 57 | 355 | 0.9 | 9.6 | 0.00 | 0.00 | 0.00 | 47 | 1015.1 |
| 20260502034405 | 57 | 15 | 0.0 | 7.8 | 0.00 | 0.00 | 0.00 | 48 | 1015.1 |
| 20260502033904 | 57 | 330 | 0.0 | 7.0 | 0.00 | 0.00 | 0.00 | 47 | 1015.0 |
| 20260502033407 | 57 | 26 | 0.9 | 4.3 | 0.00 | 0.00 | 0.00 | 47 | 1015.0 |
| 20260502032906 | 57 | 32 | 0.9 | 4.3 | 0.00 | 0.00 | 0.00 | 48 | 1014.9 |
| 20260502032406 | 57 | 25 | 0.9 | 6.1 | 0.00 | 0.00 | 0.00 | 48 | 1015.0 |
| 20260502031900 | 58 | 34 | 1.7 | 6.1 | 0.00 | 0.00 | 0.00 | 49 | 1014.9 |
| 20260502031400 | 58 | 58 | 0.9 | 6.1 | 0.00 | 0.00 | 0.00 | 49 | 1015.1 |
| 20260502030901 | 58 | 314 | 0.0 | 6.1 | 0.00 | 0.00 | 0.00 | 49 | 1015.2 |
| 20260502030358 | 58 | 39 | 0.9 | 4.3 | 0.00 | 0.00 | 0.00 | 49 | 1015.3 |
| 20260502025858 | 58 | 343 | 1.7 | 9.6 | 0.00 | 0.00 | 0.00 | 49 | 1015.4 |
| 20260502025400 | 58 | 334 | 0.9 | 9.6 | 0.00 | 0.00 | 0.00 | 49 | 1015.5 |
| 20260502024857 | 58 | 296 | 0.0 | 1.7 | 0.00 | 0.00 | 0.00 | 50 | 1015.5 |
| 20260502024359 | 58 | 15 | 0.0 | 1.7 | 0.00 | 0.00 | 0.00 | 50 | 1015.7 |
| 20260502023858 | 58 | 295 | 0.0 | 2.6 | 0.00 | 0.00 | 0.00 | 50 | 1015.6 |
| 20260502023354 | 58 | 69 | 0.0 | 4.3 | 0.00 | 0.00 | 0.00 | 50 | 1015.6 |
| 20260502022853 | 58 | 314 | 0.9 | 4.3 | 0.00 | 0.00 | 0.00 | 51 | 1015.6 |
| 20260502022357 | 58 | 338 | 0.9 | 3.5 | 0.00 | 0.00 | 0.00 | 51 | 1015.5 |
| 20260502021853 | 58 | 9 | 0.9 | 6.1 | 0.00 | 0.00 | 0.00 | 52 | 1015.5 |
| 20260502021355 | 59 | 13 | 1.7 | 7.0 | 0.00 | 0.00 | 0.00 | 52 | 1015.4 |
| 20260502020855 | 59 | 321 | 0.9 | 7.0 | 0.00 | 0.00 | 0.00 | 52 | 1015.3 |
| 20260502015850 | 59 | 358 | 0.0 | 3.5 | 0.00 | 0.00 | 0.00 | 52 | 1015.1 |
| 20260502015351 | 59 | 344 | 0.0 | 0.0 | 0.00 | 0.00 | 0.00 | 53 | 1015.1 |
| 20260502014850 | 59 | 30 | 0.0 | 0.0 | 0.00 | 0.00 | 0.00 | 54 | 1015.0 |
| 20260502014353 | 59 | 342 | 0.0 | 0.0 | 0.00 | 0.00 | 0.00 | 54 | 1014.8 |
| 20260502013851 | 60 | 354 | 0.0 | 0.0 | 0.00 | 0.00 | 0.00 | 54 | 1014.7 |
| 20260502013352 | 60 | 7 | 0.0 | 0.9 | 0.00 | 0.00 | 0.00 | 54 | 1014.6 |
| 20260502012848 | 60 | 344 | 0.0 | 0.9 | 0.00 | 0.00 | 0.00 | 54 | 1014.5 |
| 20260502012352 | 60 | 306 | 0.0 | 0.9 | 0.00 | 0.00 | 0.00 | 55 | 1014.5 |
| 20260502011851 | 60 | 282 | 0.0 | 0.9 | 0.00 | 0.00 | 0.00 | 56 | 1014.5 |
| 20260502011348 | 60 | 326 | 0.0 | 0.0 | 0.00 | 0.00 | 0.00 | 56 | 1014.5 |
| 20260502010850 | 61 | 11 | 0.0 | 0.0 | 0.00 | 0.00 | 0.00 | 57 | 1014.5 |
| 20260502005853 | 61 | 306 | 0.0 | 0.9 | 0.00 | 0.00 | 0.00 | 56 | 1014.4 |
| 20260502004851 | 61 | 21 | 0.0 | 0.0 | 0.00 | 0.00 | 0.00 | 57 | 1014.3 |
| 20260502003847 | 62 | 324 | 0.9 | 6.1 | 0.00 | 0.00 | 0.00 | 57 | 1014.1 |
| 20260502003344 | 62 | 302 | 0.9 | 6.1 | 0.00 | 0.00 | 0.00 | 56 | 1014.0 |
| 20260502002847 | 62 | 319 | 0.0 | 0.0 | 0.00 | 0.00 | 0.00 | 56 | 1013.9 |
| 20260502002345 | 62 | 317 | 0.0 | 1.7 | 0.00 | 0.00 | 0.00 | 56 | 1013.9 |
| 20260502001844 | 63 | 51 | 0.0 | 4.3 | 0.00 | 0.00 | 0.00 | 55 | 1013.7 |
| 20260502001346 | 63 | 310 | 0.0 | 4.3 | 0.00 | 0.00 | 0.00 | 55 | 1013.7 |
| 20260502000844 | 63 | 318 | 0.0 | 0.0 | 0.00 | 0.00 | 0.00 | 55 | 1013.6 |
| 20260502000347 | 64 | 325 | 0.0 | 0.0 | 0.00 | 0.00 | 0.00 | 54 | 1013.4 |
| 20260501235844 | 64 | 312 | 0.0 | 0.0 | 0.00 | 0.00 | 0.00 | 54 | 1013.3 |
| 20260501235340 | 64 | 321 | 0.0 | 0.0 | 0.00 | 0.00 | 0.00 | 52 | 1013.3 |
| 20260501234840 | 64 | 334 | 0.0 | 0.0 | 0.00 | 0.00 | 0.00 | 51 | 1013.2 |
| 20260501234342 | 65 | 300 | 0.0 | 0.0 | 0.00 | 0.00 | 0.00 | 51 | 1013.1 |
| 20260501233843 | 65 | 317 | 0.0 | 0.0 | 0.00 | 0.00 | 0.00 | 50 | 1013.0 |
| 20260501233341 | 65 | 9 | 0.0 | 0.0 | 0.00 | 0.00 | 0.00 | 49 | 1013.0 |
| 20260501232843 | 66 | 269 | 0.0 | 0.0 | 0.00 | 0.00 | 0.00 | 49 | 1013.0 |
| 20260501232341 | 66 | 309 | 0.0 | 3.5 | 0.00 | 0.00 | 0.00 | 49 | 1013.0 |
| 20260501231342 | 66 | 343 | 0.0 | 0.0 | 0.00 | 0.00 | 0.00 | 49 | 1012.6 |
| 20260501230839 | 66 | 8 | 0.0 | 0.0 | 0.00 | 0.00 | 0.00 | 49 | 1012.4 |
| 20260501230337 | 66 | 325 | 0.0 | 0.0 | 0.00 | 0.00 | 0.00 | 48 | 1012.5 |
| 20260501225838 | 66 | 349 | 0.0 | 0.0 | 0.00 | 0.00 | 0.00 | 47 | 1012.4 |
| 20260501225340 | 66 | 333 | 0.0 | 0.0 | 0.00 | 0.00 | 0.00 | 48 | 1012.6 |
| 20260501224837 | 66 | 276 | 0.0 | 0.0 | 0.00 | 0.00 | 0.00 | 47 | 1012.6 |
| 20260501224337 | 66 | 309 | 0.0 | 0.0 | 0.00 | 0.00 | 0.00 | 47 | 1012.6 |
| 20260501223339 | 66 | 296 | 0.9 | 5.2 | 0.00 | 0.00 | 0.00 | 47 | 1012.7 |
| 20260501222838 | 66 | 1 | 2.6 | 6.1 | 0.00 | 0.00 | 0.00 | 47 | 1012.8 |
| 20260501222337 | 66 | 307 | 2.6 | 6.1 | 0.00 | 0.00 | 0.00 | 48 | 1012.7 |
| 20260501221844 | 67 | 285 | 0.9 | 5.2 | 0.00 | 0.00 | 0.00 | 48 | 1012.6 |
| 20260501221336 | 67 | 314 | 1.7 | 6.1 | 0.00 | 0.00 | 0.00 | 50 | 1012.5 |
| 20260501220838 | 66 | 297 | 2.6 | 6.1 | 0.00 | 0.00 | 0.00 | 49 | 1012.3 |
| 20260501220338 | 66 | 241 | 1.7 | 5.2 | 0.00 | 0.00 | 0.00 | 49 | 1012.2 |
| 20260501215838 | 66 | 359 | 0.9 | 5.2 | 0.00 | 0.00 | 0.00 | 49 | 1012.1 |
| 20260501215333 | 66 | 323 | 0.9 | 6.1 | 0.00 | 0.00 | 0.00 | 47 | 1012.0 |
| 20260501214834 | 66 | 284 | 1.7 | 7.8 | 0.00 | 0.00 | 0.00 | 48 | 1012.0 |
| 20260501214336 | 67 | 288 | 1.7 | 7.8 | 0.00 | 0.00 | 0.00 | 49 | 1012.1 |
| 20260501213835 | 67 | 321 | 0.9 | 6.1 | 0.00 | 0.00 | 0.00 | 48 | 1012.1 |
| 20260501212835 | 67 | 41 | 0.9 | 5.2 | 0.00 | 0.00 | 0.00 | 50 | 1012.0 |
| 20260501211833 | 68 | 349 | 0.0 | 6.1 | 0.00 | 0.00 | 0.00 | 50 | 1012.1 |
| 20260501211333 | 68 | 29 | 0.0 | 0.0 | 0.00 | 0.00 | 0.00 | 49 | 1012.1 |
| 20260501210830 | 68 | 86 | 0.0 | 3.5 | 0.00 | 0.00 | 0.00 | 50 | 1012.2 |
| 20260501205830 | 67 | 296 | 0.9 | 6.1 | 0.00 | 0.00 | 0.00 | 49 | 1012.6 |
| 20260501205333 | 68 | 314 | 0.0 | 0.0 | 0.00 | 0.00 | 0.00 | 48 | 1012.7 |
| 20260501204831 | 68 | 34 | 0.0 | 0.0 | 0.00 | 0.00 | 0.00 | 48 | 1012.8 |
| 20260501204331 | 68 | 5 | 0.9 | 4.3 | 0.00 | 0.00 | 0.00 | 48 | 1013.0 |
| 20260501203826 | 68 | 8 | 0.9 | 6.1 | 0.00 | 0.00 | 0.00 | 48 | 1013.1 |
| 20260501203324 | 67 | 0 | 0.0 | 6.1 | 0.00 | 0.00 | 0.00 | 48 | 1013.4 |
| 20260501202325 | 68 | 282 | 0.9 | 6.1 | 0.00 | 0.00 | 0.00 | 48 | 1013.5 |
| 20260501201826 | 68 | 32 | 0.0 | 1.7 | 0.00 | 0.00 | 0.00 | 47 | 1013.6 |
| 20260501201329 | 68 | 323 | 0.0 | 1.7 | 0.00 | 0.00 | 0.00 | 46 | 1013.7 |
| 20260501200827 | 68 | 72 | 0.9 | 7.0 | 0.00 | 0.00 | 0.00 | 48 | 1013.8 |
| 20260501200320 | 67 | 356 | 2.6 | 7.8 | 0.00 | 0.00 | 0.00 | 48 | 1013.9 |
| 20260501195823 | 67 | 6 | 1.7 | 7.8 | 0.00 | 0.00 | 0.00 | 48 | 1014.1 |
| 20260501195319 | 67 | 274 | 0.0 | 4.3 | 0.00 | 0.00 | 0.00 | 49 | 1014.2 |
| 20260501194819 | 67 | 38 | 0.9 | 9.6 | 0.00 | 0.00 | 0.00 | 49 | 1014.3 |
| 20260501194319 | 67 | 304 | 0.9 | 9.6 | 0.00 | 0.00 | 0.00 | 49 | 1014.4 |
| 20260501193818 | 67 | 269 | 0.0 | 7.0 | 0.00 | 0.00 | 0.00 | 50 | 1014.4 |
| 20260501193317 | 66 | 273 | 0.0 | 7.0 | 0.00 | 0.00 | 0.00 | 51 | 1014.5 |
| 20260501192817 | 66 | 250 | 1.7 | 7.0 | 0.00 | 0.00 | 0.00 | 50 | 1014.6 |
| 20260501192314 | 66 | 297 | 2.6 | 8.7 | 0.00 | 0.00 | 0.00 | 50 | 1014.7 |
| 20260501191817 | 67 | 290 | 2.6 | 8.7 | 0.00 | 0.00 | 0.00 | 50 | 1014.8 |
| 20260501190813 | 67 | 300 | 2.6 | 6.1 | 0.00 | 0.00 | 0.00 | 49 | 1014.9 |
| 20260501190312 | 67 | 319 | 2.6 | 6.1 | 0.00 | 0.00 | 0.00 | 49 | 1015.0 |
| 20260501185306 | 67 | 248 | 0.9 | 6.1 | 0.00 | 0.00 | 0.00 | 49 | 1015.2 |
| 20260501184800 | 66 | 310 | 2.6 | 6.1 | 0.00 | 0.00 | 0.00 | 48 | 1015.3 |
| 20260501184255 | 67 | 322 | 2.6 | 6.1 | 0.00 | 0.00 | 0.00 | 49 | 1015.4 |
| 20260501183753 | 66 | 46 | 0.9 | 5.2 | 0.00 | 0.00 | 0.00 | 49 | 1015.3 |